Newark, Indiana
Current Conditions -  °F | °C
As of 10:53 PM on Saturday 22 Nov 2014 (Local Time) from KBMG Reporting Station
Overcast Overcast  
Wind Chill: 54°   Ceiling: 5500
Heat Index: 54°   Visibility: 10mi
Dew Point: 35°   Wind: 8mph
Humidity: 49%   Direction: 190°S
Pressure: 30.01"   Gusts: NA
Location:  39.1236°N, 86.7572°W
Report Text: KBMG 230353Z 19007KT 10SM BKN055 OVC070 12/02 A3001 RMK AO2 SLP162 T01220017
Loading
Personal Weather Stations






























Interactive Weather Map New forecast layout! Learn more

10-Day Weather Forecast

Advertisements
Track Severe Weather on mobile